Besiktas Bosphorus — TCOG3 — position and weather

sailwx.info

Track history (hours):
 
Tides and Currents Weather Stations Pressure Air Temp Water Temp Dewpoint Dewpoint Depression Visibility Wind Speed Wind Dir Waves Ship Positions

Besiktas Bosphorus

Last reported at 2017-Apr-20 10:57 UTC. Time now 2017-Apr-24 01:41 UTC.
Position N 36°14' E 014°49'.

Length 274 m; draft 14.1 m.

Type: Ship (hazmat cat A). MMSI: 271000817.

Date/timePositionNaut miles runAvg speedWind from/ knotsBaromVisibWave heightAir tempDewpointWater temp
2017-Apr-20 10:57N 36°14' E 014°49'512.2
2017-Apr-20 10:30N 36°16' E 014°43'612.4
2017-Apr-20 10:00N 36°18' E 014°36'612.8
2017-Apr-20 09:30N 36°19' E 014°28'713.0
2017-Apr-20 09:00N 36°20' E 014°20'612.8
2017-Apr-20 08:30N 36°21' E 014°12'612.9
2017-Apr-20 08:00N 36°23' E 014°05'713.1
2017-Apr-20 07:30N 36°25' E 013°57'613.1
2017-Apr-20 07:00N 36°27' E 013°49'50512.4
2017-Apr-18 14:13N 37°11' E 003°20'912.9
2017-Apr-18 13:30N 37°10' E 003°09'612.9
2017-Apr-18 13:00N 37°08' E 003°01'712.9
2017-Apr-18 12:30N 37°06' E 002°53'1512.7
2017-Apr-18 11:20N 37°04' E 002°35'1012.8
2017-Apr-18 10:34N 37°02' E 002°23'113.0
2017-Apr-18 10:27N 37°02' E 002°21'613.0
2017-Apr-18 10:00N 37°01' E 002°14'612.7
2017-Apr-18 09:30N 36°60' E 002°06'612.9
2017-Apr-18 09:00N 36°59' E 001°58'713.1
2017-Apr-18 08:30N 36°58' E 001°50'1013.1
2017-Apr-18 07:42N 36°56' E 001°37'313.4
2017-Apr-18 07:30N 36°55' E 001°34'713.4
2017-Apr-18 07:00N 36°54' E 001°25'813.9
2017-Apr-18 06:27N 36°53' E 001°16'714.0
2017-Apr-18 05:59N 36°52' E 001°08'813.7
2017-Apr-18 05:23N 36°50' E 000°58'5313.2
2017-Apr-18 01:23N 36°40' W 000°07'513.2
2017-Apr-18 01:00N 36°39' W 000°13'1313.2
2017-Apr-18 00:01N 36°36' W 000°28'213.0
2017-Apr-17 23:52N 36°36' W 000°31'613.1
2017-Apr-17 23:24N 36°35' W 000°39'6113.4
2017-Apr-17 18:53N 36°24' W 001°53'15413.5
2017-Apr-17 07:30N 36°02' W 005°02'714.4
2017-Apr-17 07:00N 36°01' W 005°10'714.5
2017-Apr-17 06:30N 35°60' W 005°19'714.2
2017-Apr-17 06:00N 35°58' W 005°27'612.9
2017-Apr-17 05:30N 35°55' W 005°35'611.8
2017-Apr-17 05:00N 35°54' W 005°42'912.2
2017-Apr-17 04:17N 35°54' W 005°53'612.3
2017-Apr-17 03:50N 35°54' W 005°60'19312.7
2017-Apr-16 12:40N 33°40' W 008°49'312.9
2017-Apr-16 12:25N 33°38' W 008°52'712.8
2017-Apr-16 11:51N 33°33' W 008°58'412.7
2017-Apr-16 11:30N 33°31' W 009°02'8412.9
2017-Apr-16 05:00N 32°32' W 010°14'3612.7
2017-Apr-16 02:12N 32°08' W 010°45'312.8
2017-Apr-16 02:00N 32°06' W 010°47'1612.6
2017-Apr-16 00:42N 31°55' W 011°01'312.7
2017-Apr-16 00:27N 31°52' W 011°04'612.7
2017-Apr-16 00:00N 31°48' W 011°08'612.6
2017-Apr-15 23:30N 31°44' W 011°14'612.4
2017-Apr-15 23:00N 31°40' W 011°19'812.7
2017-Apr-15 22:23N 31°34' W 011°26'4012.8
2017-Apr-15 19:15N 31°07' W 012°00'6912.8
2017-Apr-15 13:54N 30°20' W 012°58'2813.1
2017-Apr-15 11:46N 30°01' W 013°22'313.1
2017-Apr-15 11:30N 29°59' W 013°25'712.9
2017-Apr-15 10:59N 29°54' W 013°30'612.9
2017-Apr-15 10:30N 29°50' W 013°35'812.9
2017-Apr-15 09:51N 29°44' W 013°42'512.9
2017-Apr-15 09:30N 29°41' W 013°46'912.9
2017-Apr-15 08:49N 29°34' W 013°52'512.8
2017-Apr-15 08:27N 29°30' W 013°55'713.0
2017-Apr-15 07:56N 29°24' W 013°60'613.1
2017-Apr-15 07:30N 29°20' W 014°03'613.1
2017-Apr-15 07:00N 29°14' W 014°07'713.2
2017-Apr-15 06:30N 29°09' W 014°12'713.2
2017-Apr-15 06:00N 29°03' W 014°16'713.1
2017-Apr-15 05:30N 28°58' W 014°20'613.0
2017-Apr-15 05:00N 28°52' W 014°24'713.1
2017-Apr-15 04:30N 28°47' W 014°28'713.3
2017-Apr-15 04:00N 28°42' W 014°33'713.1
2017-Apr-15 03:28N 28°36' W 014°37'613.1
2017-Apr-15 03:00N 28°31' W 014°41'613.1
2017-Apr-15 02:30N 28°25' W 014°45'713.3
2017-Apr-15 02:00N 28°20' W 014°49'713.7
2017-Apr-15 01:30N 28°13' W 014°52'713.6
2017-Apr-15 01:00N 28°07' W 014°55'713.6
2017-Apr-15 00:30N 28°00' W 014°57'713.9
2017-Apr-15 00:00N 27°54' W 014°60'713.8
2017-Apr-14 23:31N 27°47' W 015°02'713.4
2017-Apr-14 23:00N 27°41' W 015°05'713.1
2017-Apr-14 22:30N 27°35' W 015°08'713.4
2017-Apr-14 22:00N 27°30' W 015°13'3713.3
2017-Apr-14 19:14N 27°01' W 015°38'1013.4
2017-Apr-14 18:29N 26°53' W 015°45'813.4
2017-Apr-14 17:53N 26°46' W 015°50'  
Track history (hours):
 
Tides and Currents Weather Stations Pressure Air Temp Water Temp Dewpoint Dewpoint Depression Visibility Wind Speed Wind Dir Waves Ship Positions

Besiktas Bosphorus

Last reported at 2017-Apr-20 10:57 UTC. Time now 2017-Apr-24 01:41 UTC.
Position N 36°14' E 014°49'.

Length 274 m; draft 14.1 m.

Type: Ship (hazmat cat A). MMSI: 271000817.

Date/timePositionNaut miles runAvg speedWind from/ knotsBaromVisibWave heightAir tempDewpointWater temp
2017-Apr-20 10:57N 36°14' E 014°49'512.2
2017-Apr-20 10:30N 36°16' E 014°43'612.4
2017-Apr-20 10:00N 36°18' E 014°36'612.8
2017-Apr-20 09:30N 36°19' E 014°28'713.0
2017-Apr-20 09:00N 36°20' E 014°20'612.8
2017-Apr-20 08:30N 36°21' E 014°12'612.9
2017-Apr-20 08:00N 36°23' E 014°05'713.1
2017-Apr-20 07:30N 36°25' E 013°57'613.1
2017-Apr-20 07:00N 36°27' E 013°49'50512.4
2017-Apr-18 14:13N 37°11' E 003°20'912.9
2017-Apr-18 13:30N 37°10' E 003°09'612.9
2017-Apr-18 13:00N 37°08' E 003°01'712.9
2017-Apr-18 12:30N 37°06' E 002°53'1512.7
2017-Apr-18 11:20N 37°04' E 002°35'1012.8
2017-Apr-18 10:34N 37°02' E 002°23'113.0
2017-Apr-18 10:27N 37°02' E 002°21'613.0
2017-Apr-18 10:00N 37°01' E 002°14'612.7
2017-Apr-18 09:30N 36°60' E 002°06'612.9
2017-Apr-18 09:00N 36°59' E 001°58'713.1
2017-Apr-18 08:30N 36°58' E 001°50'1013.1
2017-Apr-18 07:42N 36°56' E 001°37'313.4
2017-Apr-18 07:30N 36°55' E 001°34'713.4
2017-Apr-18 07:00N 36°54' E 001°25'813.9
2017-Apr-18 06:27N 36°53' E 001°16'714.0
2017-Apr-18 05:59N 36°52' E 001°08'813.7
2017-Apr-18 05:23N 36°50' E 000°58'5313.2
2017-Apr-18 01:23N 36°40' W 000°07'513.2
2017-Apr-18 01:00N 36°39' W 000°13'1313.2
2017-Apr-18 00:01N 36°36' W 000°28'213.0
2017-Apr-17 23:52N 36°36' W 000°31'613.1
2017-Apr-17 23:24N 36°35' W 000°39'6113.4
2017-Apr-17 18:53N 36°24' W 001°53'15413.5
2017-Apr-17 07:30N 36°02' W 005°02'714.4
2017-Apr-17 07:00N 36°01' W 005°10'714.5
2017-Apr-17 06:30N 35°60' W 005°19'714.2
2017-Apr-17 06:00N 35°58' W 005°27'612.9
2017-Apr-17 05:30N 35°55' W 005°35'611.8
2017-Apr-17 05:00N 35°54' W 005°42'912.2
2017-Apr-17 04:17N 35°54' W 005°53'612.3
2017-Apr-17 03:50N 35°54' W 005°60'19312.7
2017-Apr-16 12:40N 33°40' W 008°49'312.9
2017-Apr-16 12:25N 33°38' W 008°52'712.8
2017-Apr-16 11:51N 33°33' W 008°58'412.7
2017-Apr-16 11:30N 33°31' W 009°02'8412.9
2017-Apr-16 05:00N 32°32' W 010°14'3612.7
2017-Apr-16 02:12N 32°08' W 010°45'312.8
2017-Apr-16 02:00N 32°06' W 010°47'1612.6
2017-Apr-16 00:42N 31°55' W 011°01'312.7
2017-Apr-16 00:27N 31°52' W 011°04'612.7
2017-Apr-16 00:00N 31°48' W 011°08'612.6
2017-Apr-15 23:30N 31°44' W 011°14'612.4
2017-Apr-15 23:00N 31°40' W 011°19'812.7
2017-Apr-15 22:23N 31°34' W 011°26'4012.8
2017-Apr-15 19:15N 31°07' W 012°00'6912.8
2017-Apr-15 13:54N 30°20' W 012°58'2813.1
2017-Apr-15 11:46N 30°01' W 013°22'313.1
2017-Apr-15 11:30N 29°59' W 013°25'712.9
2017-Apr-15 10:59N 29°54' W 013°30'612.9
2017-Apr-15 10:30N 29°50' W 013°35'812.9
2017-Apr-15 09:51N 29°44' W 013°42'512.9
2017-Apr-15 09:30N 29°41' W 013°46'912.9
2017-Apr-15 08:49N 29°34' W 013°52'512.8
2017-Apr-15 08:27N 29°30' W 013°55'713.0
2017-Apr-15 07:56N 29°24' W 013°60'613.1
2017-Apr-15 07:30N 29°20' W 014°03'613.1
2017-Apr-15 07:00N 29°14' W 014°07'713.2
2017-Apr-15 06:30N 29°09' W 014°12'713.2
2017-Apr-15 06:00N 29°03' W 014°16'713.1
2017-Apr-15 05:30N 28°58' W 014°20'613.0
2017-Apr-15 05:00N 28°52' W 014°24'713.1
2017-Apr-15 04:30N 28°47' W 014°28'713.3
2017-Apr-15 04:00N 28°42' W 014°33'713.1
2017-Apr-15 03:28N 28°36' W 014°37'613.1
2017-Apr-15 03:00N 28°31' W 014°41'613.1
2017-Apr-15 02:30N 28°25' W 014°45'713.3
2017-Apr-15 02:00N 28°20' W 014°49'713.7
2017-Apr-15 01:30N 28°13' W 014°52'713.6
2017-Apr-15 01:00N 28°07' W 014°55'713.6
2017-Apr-15 00:30N 28°00' W 014°57'713.9
2017-Apr-15 00:00N 27°54' W 014°60'713.8
2017-Apr-14 23:31N 27°47' W 015°02'713.4
2017-Apr-14 23:00N 27°41' W 015°05'713.1
2017-Apr-14 22:30N 27°35' W 015°08'713.4
2017-Apr-14 22:00N 27°30' W 015°13'3713.3
2017-Apr-14 19:14N 27°01' W 015°38'1013.4
2017-Apr-14 18:29N 26°53' W 015°45'813.4
2017-Apr-14 17:53N 26°46' W 015°50'  

Dump ship's entire track history